createdAt,value
2016-09-20T00:02:29.780Z,79.27
2016-09-20T00:17:27.686Z,78.7
2016-09-20T00:32:27.728Z,79.03
2016-09-20T00:47:33.898Z,80.03
2016-09-20T01:02:27.690Z,80.13
2016-09-20T01:17:27.684Z,79.7
2016-09-20T01:32:29.845Z,79.75
2016-09-20T01:47:27.699Z,80.17
2016-09-20T02:02:27.693Z,79.92
2016-09-20T02:17:31.806Z,80.4
2016-09-20T02:32:29.745Z,80.13
2016-09-20T02:47:37.831Z,80.12
2016-09-20T03:02:29.709Z,80.12
2016-09-20T03:17:27.706Z,81.22
2016-09-20T03:32:27.706Z,81.12
2016-09-20T03:47:38.174Z,81.37
2016-09-20T04:02:29.723Z,81.05
2016-09-20T04:17:29.822Z,80.42
2016-09-20T04:32:33.928Z,80.12
2016-09-20T04:47:27.719Z,80.54
2016-09-20T05:02:31.872Z,79.67
2016-09-20T05:17:29.834Z,79.65
2016-09-20T05:32:27.724Z,78.61
2016-09-20T05:47:34.038Z,79.25
2016-09-20T06:02:27.734Z,79.17
2016-09-20T06:17:27.800Z,78.87
2016-09-20T06:32:29.759Z,78.69
2016-09-20T06:47:27.745Z,78.24
2016-09-20T07:02:29.858Z,76.7
2016-09-20T07:17:27.804Z,76.67
2016-09-20T07:32:35.977Z,76.73
2016-09-20T07:47:29.770Z,76.05
2016-09-20T08:02:27.764Z,73.06
2016-09-20T08:17:27.800Z,71.01
2016-09-20T08:32:29.871Z,68.18
2016-09-20T08:47:27.775Z,68.25
2016-09-20T09:02:31.993Z,66.28
2016-09-20T09:17:32.039Z,61.29
2016-09-20T09:32:29.866Z,61.52
2016-09-20T09:47:27.771Z,57.11
2016-09-20T10:02:29.871Z,56.2
2016-09-20T10:17:32.028Z,57.97
2016-09-20T10:32:27.777Z,57.58
2016-09-20T10:47:29.778Z,57.3
2016-09-20T11:02:31.900Z,55.04
2016-09-20T11:17:29.781Z,53.98
2016-09-20T11:32:27.836Z,56.98
2016-09-20T11:47:33.914Z,56.46
2016-09-20T12:02:34.016Z,54.6
2016-09-20T12:17:32.005Z,53.28
2016-09-20T12:32:29.861Z,52.53
2016-09-20T12:47:29.910Z,54.62
2016-09-20T13:02:27.807Z,51.42
2016-09-20T13:17:27.802Z,52.95
2016-09-20T13:32:27.811Z,53.77
2016-09-20T13:47:29.872Z,53.19
2016-09-20T14:02:27.846Z,50.43
2016-09-20T14:17:32.071Z,53.4
2016-09-20T14:32:29.864Z,53.95
2016-09-20T14:47:29.864Z,54.24
2016-09-20T15:02:29.980Z,52.58
2016-09-20T15:17:27.871Z,51.35
2016-09-20T15:32:27.884Z,50.39
2016-09-20T15:47:34.216Z,51.56
2016-09-20T16:02:29.981Z,53.18
2016-09-20T16:17:27.865Z,51.54
2016-09-20T16:32:29.982Z,53.75
2016-09-20T16:47:34.000Z,57.18
2016-09-20T17:02:27.869Z,55.93
2016-09-20T17:17:32.009Z,56.6
2016-09-20T17:32:29.900Z,58.12
2016-09-20T17:47:30.022Z,60.34
2016-09-20T18:02:27.907Z,63.24
2016-09-20T18:17:27.996Z,64.09
2016-09-20T18:32:27.927Z,65.74
2016-09-20T18:47:27.910Z,65.71
2016-09-20T19:02:34.119Z,66.6
2016-09-20T19:17:29.945Z,66.68
2016-09-20T19:32:27.912Z,68.08
2016-09-20T19:47:27.918Z,68.5
2016-09-20T20:02:34.053Z,68.69
2016-09-20T20:17:30.047Z,69.41
2016-09-20T20:32:27.928Z,69.37
2016-09-20T20:47:27.909Z,70.35
2016-09-20T21:02:27.911Z,70.38
2016-09-20T21:17:38.241Z,72.17
2016-09-20T21:32:30.019Z,71.54
2016-09-20T21:47:30.026Z,72.27
2016-09-20T22:02:27.933Z,71.64
2016-09-20T22:17:36.143Z,72.82
2016-09-20T22:32:32.127Z,72.59
2016-09-20T22:47:32.042Z,72.59
2016-09-20T23:02:29.913Z,72.92
2016-09-20T23:17:30.049Z,73.71
2016-09-20T23:32:32.041Z,74.14
2016-09-20T23:47:29.915Z,74.52
